createdAt,value
2022-08-11T00:00:08.371Z,26.10
2022-08-11T00:01:07.419Z,26.07
2022-08-11T00:02:15.044Z,26.07
2022-08-11T00:03:07.749Z,26.02
2022-08-11T00:04:07.378Z,25.95
2022-08-11T00:05:07.692Z,25.90
2022-08-11T00:06:07.232Z,25.84
2022-08-11T00:07:07.680Z,25.79
2022-08-11T00:08:07.616Z,25.76
2022-08-11T00:09:07.530Z,25.72
2022-08-11T00:10:07.455Z,25.68
2022-08-11T00:11:07.527Z,25.65
2022-08-11T00:12:07.719Z,25.64
2022-08-11T00:13:07.401Z,25.62
2022-08-11T00:14:08.020Z,25.59
2022-08-11T00:15:07.631Z,25.54
2022-08-11T00:16:07.371Z,25.52
2022-08-11T00:17:07.956Z,25.5
2022-08-11T00:18:07.503Z,25.50
2022-08-11T00:19:07.522Z,25.47
2022-08-11T00:20:12.403Z,25.44
2022-08-11T00:21:07.633Z,25.43
2022-08-11T00:22:07.416Z,25.42
2022-08-11T00:23:07.691Z,25.42
2022-08-11T00:24:08.071Z,25.39
2022-08-11T00:25:08.027Z,25.37
2022-08-11T00:26:07.357Z,25.33
2022-08-11T00:27:07.662Z,25.33
2022-08-11T00:28:07.521Z,25.34
2022-08-11T00:29:07.340Z,25.37
2022-08-11T00:30:07.841Z,25.36
2022-08-11T00:31:07.603Z,25.35
2022-08-11T00:32:08.009Z,25.31
2022-08-11T00:33:07.946Z,25.26
2022-08-11T00:34:07.262Z,25.22
2022-08-11T00:35:50.943Z,25.18
2022-08-11T00:36:06.949Z,25.14
2022-08-11T00:37:07.419Z,25.12
2022-08-11T00:38:07.657Z,25.07
2022-08-11T00:39:07.306Z,25.02
2022-08-11T00:40:08.026Z,24.95
2022-08-11T00:41:07.501Z,24.95
2022-08-11T00:42:07.886Z,24.94
2022-08-11T00:43:07.287Z,24.91
2022-08-11T00:44:07.723Z,24.92
2022-08-11T00:45:07.635Z,24.90
2022-08-11T00:46:07.348Z,24.87
2022-08-11T00:47:07.987Z,24.85
2022-08-11T00:48:07.349Z,24.81
2022-08-11T00:49:08.007Z,24.80
2022-08-11T00:50:07.646Z,24.79
2022-08-11T00:51:07.172Z,24.79
2022-08-11T00:52:07.806Z,24.80
2022-08-11T00:53:07.657Z,24.77
2022-08-11T00:54:07.874Z,24.74
2022-08-11T00:55:07.578Z,24.73
2022-08-11T00:56:07.693Z,24.72
2022-08-11T00:57:10.343Z,24.70
2022-08-11T00:58:07.393Z,24.69
2022-08-11T00:59:26.450Z,24.71
2022-08-11T01:00:08.145Z,24.70
2022-08-11T01:01:07.723Z,24.69
2022-08-11T01:02:07.533Z,24.69
2022-08-11T01:03:07.444Z,24.69
2022-08-11T01:04:07.577Z,24.66
2022-08-11T01:05:08.002Z,24.64
2022-08-11T01:06:08.038Z,24.62
2022-08-11T01:07:07.507Z,24.60
2022-08-11T01:08:07.763Z,24.58
2022-08-11T01:09:07.498Z,24.57
2022-08-11T01:10:07.985Z,24.56
2022-08-11T01:11:07.499Z,24.54
2022-08-11T01:12:08.132Z,24.52
2022-08-11T01:13:08.420Z,24.50
2022-08-11T01:14:07.873Z,24.47
2022-08-11T01:15:07.788Z,24.44
2022-08-11T01:16:07.513Z,24.41
2022-08-11T01:17:09.623Z,24.41
2022-08-11T01:18:07.371Z,24.38
2022-08-11T01:19:07.797Z,24.33
2022-08-11T01:20:45.325Z,24.29
2022-08-11T01:21:07.056Z,24.29
2022-08-11T01:22:07.812Z,24.29
2022-08-11T01:23:07.590Z,24.28
2022-08-11T01:24:08.179Z,24.26
2022-08-11T01:25:07.577Z,24.24
2022-08-11T01:26:07.912Z,24.23
2022-08-11T01:27:19.567Z,24.23
2022-08-11T01:28:07.542Z,24.24
2022-08-11T01:29:08.030Z,24.23
2022-08-11T01:30:08.072Z,24.25
2022-08-11T01:31:07.638Z,24.26
2022-08-11T01:32:07.677Z,24.24
2022-08-11T01:33:07.383Z,24.23
2022-08-11T01:34:07.712Z,24.23
2022-08-11T01:35:07.206Z,24.21
2022-08-11T01:36:07.786Z,24.18
2022-08-11T01:37:07.348Z,24.16
2022-08-11T01:38:07.672Z,24.12
2022-08-11T01:39:07.854Z,24.10
2022-08-11T01:40:07.563Z,24.07
2022-08-11T01:41:07.112Z,24.06
2022-08-11T01:42:07.719Z,24.03
2022-08-11T01:43:08.026Z,24.00
2022-08-11T01:44:12.645Z,23.95
2022-08-11T01:45:08.008Z,23.93
2022-08-11T01:46:07.529Z,23.89
2022-08-11T01:47:08.051Z,23.87
2022-08-11T01:48:07.423Z,23.83
2022-08-11T01:50:06.591Z,23.81
2022-08-11T01:50:10.473Z,23.80
2022-08-11T01:51:07.367Z,23.79
2022-08-11T01:52:07.567Z,23.77
2022-08-11T01:53:07.780Z,23.79
2022-08-11T01:54:07.273Z,23.78
2022-08-11T01:55:07.925Z,23.77
2022-08-11T01:56:07.221Z,23.74
2022-08-11T01:57:07.442Z,23.70
2022-08-11T01:58:07.428Z,23.64
2022-08-11T01:59:07.673Z,23.60
2022-08-11T02:00:07.662Z,23.55
2022-08-11T02:01:07.640Z,23.52
2022-08-11T02:02:07.306Z,23.45
2022-08-11T02:03:07.512Z,23.42
2022-08-11T02:04:08.128Z,23.37
2022-08-11T02:05:08.071Z,23.36
2022-08-11T02:06:07.396Z,23.32
2022-08-11T02:07:08.900Z,23.31
2022-08-11T02:08:07.497Z,23.28
2022-08-11T02:09:07.576Z,23.26
2022-08-11T02:10:07.059Z,23.25
2022-08-11T02:11:07.756Z,23.21
2022-08-11T02:12:07.485Z,23.19
2022-08-11T02:13:07.829Z,23.17
2022-08-11T02:14:07.313Z,23.16
2022-08-11T02:15:08.212Z,23.15
2022-08-11T02:16:07.652Z,23.17
2022-08-11T02:17:07.575Z,23.15
2022-08-11T02:18:07.131Z,23.14
2022-08-11T02:19:07.235Z,23.13
2022-08-11T02:20:07.823Z,23.13
2022-08-11T02:21:07.361Z,23.15
2022-08-11T02:22:07.689Z,23.13
2022-08-11T02:23:07.775Z,23.14
2022-08-11T02:24:08.040Z,23.15
2022-08-11T02:25:07.788Z,23.14
2022-08-11T02:26:07.678Z,23.14
2022-08-11T02:27:07.444Z,23.15
2022-08-11T02:28:07.826Z,23.15
2022-08-11T02:29:07.321Z,23.13
2022-08-11T02:30:07.303Z,23.07
2022-08-11T02:31:15.466Z,23.06
2022-08-11T02:32:25.485Z,23.04
2022-08-11T02:33:07.495Z,23.01
2022-08-11T02:34:07.809Z,22.99
2022-08-11T02:35:07.411Z,22.96
2022-08-11T02:36:07.903Z,22.96
2022-08-11T02:37:07.755Z,22.95
2022-08-11T02:38:07.599Z,22.94
2022-08-11T02:39:07.354Z,22.95
2022-08-11T02:40:07.990Z,22.97
2022-08-11T02:41:07.367Z,22.97
2022-08-11T02:42:08.262Z,22.98
2022-08-11T02:43:07.426Z,22.99
2022-08-11T02:44:07.828Z,22.98
2022-08-11T02:45:07.620Z,22.98
2022-08-11T02:46:07.340Z,22.99
2022-08-11T02:47:07.694Z,22.98
2022-08-11T02:48:07.460Z,22.97
2022-08-11T02:49:07.876Z,22.97
2022-08-11T02:50:07.999Z,22.96
2022-08-11T02:51:07.698Z,22.94
2022-08-11T02:52:07.310Z,22.92
2022-08-11T02:53:08.215Z,22.92
2022-08-11T02:54:07.945Z,22.92
2022-08-11T02:55:07.529Z,22.89
2022-08-11T02:56:07.716Z,22.88
2022-08-11T02:57:11.444Z,22.85
2022-08-11T02:58:07.444Z,22.85
2022-08-11T02:59:07.788Z,22.81
2022-08-11T03:00:07.998Z,22.78
2022-08-11T03:01:07.370Z,22.76
2022-08-11T03:02:07.939Z,22.74
2022-08-11T03:03:07.794Z,22.70
2022-08-11T03:04:07.307Z,22.70
2022-08-11T03:05:08.092Z,22.65
2022-08-11T03:06:07.692Z,22.64
2022-08-11T03:07:29.048Z,22.60
2022-08-11T03:08:07.507Z,22.58
2022-08-11T03:09:07.397Z,22.52
2022-08-11T03:10:07.844Z,22.47
2022-08-11T03:11:07.464Z,22.43
2022-08-11T03:12:07.617Z,22.38
2022-08-11T03:13:07.304Z,22.35
2022-08-11T03:14:07.687Z,22.32
2022-08-11T03:15:07.522Z,22.31
2022-08-11T03:16:07.751Z,22.29
2022-08-11T03:17:07.323Z,22.30
2022-08-11T03:18:07.916Z,22.29
2022-08-11T03:19:07.423Z,22.26
2022-08-11T03:20:07.790Z,22.22
2022-08-11T03:21:07.229Z,22.19
2022-08-11T03:22:07.456Z,22.17
2022-08-11T03:23:19.671Z,22.14
2022-08-11T03:24:07.872Z,22.11
2022-08-11T03:25:12.384Z,22.07
2022-08-11T03:26:07.762Z,22.06
2022-08-11T03:27:07.616Z,22.05
2022-08-11T03:28:07.740Z,22.02
2022-08-11T03:29:07.448Z,22.02
2022-08-11T03:30:07.625Z,22.01
2022-08-11T03:31:07.437Z,21.99
2022-08-11T03:32:08.044Z,21.98
2022-08-11T03:33:07.937Z,22
2022-08-11T03:34:08.284Z,22.01
2022-08-11T03:35:08.128Z,22.01
2022-08-11T03:36:07.587Z,22.00
2022-08-11T03:37:16.130Z,22.02
2022-08-11T03:38:07.739Z,22
2022-08-11T03:39:07.431Z,21.99
2022-08-11T03:40:08.023Z,22
2022-08-11T03:42:02.210Z,21.96
2022-08-11T03:42:10.288Z,21.94
2022-08-11T03:43:07.812Z,21.93
2022-08-11T03:44:07.454Z,21.94
2022-08-11T03:45:07.245Z,21.92
2022-08-11T03:46:08.005Z,21.92
2022-08-11T03:47:07.253Z,21.92
2022-08-11T03:48:07.992Z,21.92
2022-08-11T03:49:07.446Z,21.90
2022-08-11T03:50:07.360Z,21.90
2022-08-11T03:51:07.843Z,21.91
2022-08-11T03:52:07.349Z,21.87
2022-08-11T03:53:07.583Z,21.89
2022-08-11T03:54:06.998Z,21.89
2022-08-11T03:55:07.942Z,21.88
2022-08-11T03:56:07.708Z,21.87
2022-08-11T03:57:07.311Z,21.88
2022-08-11T03:58:07.524Z,21.87
2022-08-11T03:59:08.079Z,21.85
2022-08-11T04:00:08.649Z,21.88
2022-08-11T04:01:07.606Z,21.86
2022-08-11T04:02:07.548Z,21.85
2022-08-11T04:03:07.002Z,21.83
2022-08-11T04:04:07.920Z,21.82
2022-08-11T04:05:07.569Z,21.81
2022-08-11T04:06:08.057Z,21.80
2022-08-11T04:07:07.423Z,21.77
2022-08-11T04:08:07.529Z,21.73
2022-08-11T04:09:07.413Z,21.71
2022-08-11T04:10:07.889Z,21.68
2022-08-11T04:11:07.351Z,21.65
2022-08-11T04:12:07.866Z,21.64
2022-08-11T04:13:07.320Z,21.63
2022-08-11T04:14:07.643Z,21.64
2022-08-11T04:15:07.248Z,21.61
2022-08-11T04:16:11.530Z,21.62
2022-08-11T04:17:07.659Z,21.61
2022-08-11T04:18:07.349Z,21.62
2022-08-11T04:19:07.758Z,21.60
2022-08-11T04:20:07.362Z,21.62
2022-08-11T04:21:07.800Z,21.61
2022-08-11T04:22:07.200Z,21.61
2022-08-11T04:23:07.429Z,21.59
2022-08-11T04:24:35.439Z,21.57
2022-08-11T04:25:08.052Z,21.56
2022-08-11T04:26:18.813Z,21.54
2022-08-11T04:27:08.195Z,21.54
2022-08-11T04:28:07.639Z,21.52
2022-08-11T04:29:09.528Z,21.52
2022-08-11T04:30:09.102Z,21.48
2022-08-11T04:31:07.882Z,21.49
2022-08-11T04:32:07.336Z,21.43
2022-08-11T04:33:07.746Z,21.43
2022-08-11T04:34:08.192Z,21.38
2022-08-11T04:35:08.259Z,21.39
2022-08-11T04:36:07.967Z,21.35
2022-08-11T04:37:07.413Z,21.32
2022-08-11T04:38:07.778Z,21.31
2022-08-11T04:39:07.474Z,21.29
2022-08-11T04:40:07.699Z,21.27
2022-08-11T04:41:07.186Z,21.26
2022-08-11T04:42:07.307Z,21.27
2022-08-11T04:43:07.426Z,21.28
2022-08-11T04:44:07.579Z,21.28
2022-08-11T04:45:08.345Z,21.27
2022-08-11T04:46:07.252Z,21.28
2022-08-11T04:47:07.755Z,21.27
2022-08-11T04:48:07.584Z,21.25
2022-08-11T04:49:08.007Z,21.27
2022-08-11T04:50:07.015Z,21.26
2022-08-11T04:51:15.994Z,21.25
2022-08-11T04:52:07.596Z,21.27
2022-08-11T04:53:07.807Z,21.27
2022-08-11T04:54:07.365Z,21.28
2022-08-11T04:55:07.309Z,21.30
2022-08-11T04:56:07.532Z,21.30
2022-08-11T04:57:07.991Z,21.31
2022-08-11T04:58:07.602Z,21.31
2022-08-11T04:59:07.345Z,21.32
2022-08-11T05:00:08.718Z,21.35
2022-08-11T05:01:07.510Z,21.35
2022-08-11T05:02:17.323Z,21.37
2022-08-11T05:03:07.779Z,21.37
2022-08-11T05:04:07.160Z,21.37
2022-08-11T05:05:07.694Z,21.40
2022-08-11T05:06:07.241Z,21.42
2022-08-11T05:07:07.846Z,21.45
2022-08-11T05:08:07.358Z,21.45
2022-08-11T05:09:07.494Z,21.48
2022-08-11T05:10:07.898Z,21.53
2022-08-11T05:11:07.492Z,21.55
2022-08-11T05:12:07.656Z,21.60
2022-08-11T05:13:07.881Z,21.65
2022-08-11T05:14:07.462Z,21.67
2022-08-11T05:15:08.319Z,21.71
2022-08-11T05:16:07.661Z,21.74
2022-08-11T05:17:08.177Z,21.77
2022-08-11T05:18:07.799Z,21.79
2022-08-11T05:19:07.840Z,21.83
2022-08-11T05:20:12.283Z,21.86
2022-08-11T05:21:07.629Z,21.90
2022-08-11T05:22:15.153Z,21.92
2022-08-11T05:23:08.286Z,21.97
2022-08-11T05:24:07.491Z,22.02
2022-08-11T05:25:08.117Z,22.04
2022-08-11T05:26:46.182Z,22.10
2022-08-11T05:27:12.882Z,22.12
2022-08-11T05:28:07.603Z,22.20
2022-08-11T05:29:19.706Z,22.25
2022-08-11T05:30:07.621Z,22.31
2022-08-11T05:31:07.217Z,22.35
2022-08-11T05:32:07.810Z,22.42
2022-08-11T05:33:07.870Z,22.45
2022-08-11T05:34:07.552Z,22.48
2022-08-11T05:35:07.442Z,22.52
2022-08-11T05:36:22.311Z,22.56
2022-08-11T05:37:25.712Z,22.60
2022-08-11T05:38:07.340Z,22.63
2022-08-11T05:39:07.795Z,22.69
2022-08-11T05:40:07.736Z,22.75
2022-08-11T05:41:07.260Z,22.77
2022-08-11T05:42:07.619Z,22.82
2022-08-11T05:43:07.655Z,22.88
2022-08-11T05:44:21.311Z,22.89
2022-08-11T05:45:15.648Z,22.93
2022-08-11T05:46:11.332Z,22.97
2022-08-11T05:47:07.960Z,23
2022-08-11T05:48:07.769Z,23.04
2022-08-11T05:49:07.237Z,23.07
2022-08-11T05:50:07.639Z,23.11
2022-08-11T05:51:10.519Z,23.13
2022-08-11T05:52:12.942Z,23.15
2022-08-11T05:53:09.201Z,23.18
2022-08-11T05:54:07.056Z,23.21
2022-08-11T05:55:07.449Z,23.24
2022-08-11T05:56:08.059Z,23.28
2022-08-11T05:57:07.532Z,23.32
2022-08-11T05:58:07.789Z,23.37
2022-08-11T05:59:07.257Z,23.42
2022-08-11T06:00:08.478Z,23.46
2022-08-11T06:01:08.033Z,23.53
2022-08-11T06:02:08.127Z,23.56
2022-08-11T06:03:07.774Z,23.61
2022-08-11T06:04:07.691Z,23.67
2022-08-11T06:05:07.446Z,23.70
2022-08-11T06:06:08.061Z,23.76
2022-08-11T06:07:07.552Z,23.80
2022-08-11T06:08:08.071Z,23.86
2022-08-11T06:09:07.906Z,23.92
2022-08-11T06:10:07.719Z,23.97
2022-08-11T06:11:07.695Z,24.00
2022-08-11T06:12:07.260Z,24.03
2022-08-11T06:13:07.749Z,24.03
2022-08-11T06:14:08.060Z,24.06
2022-08-11T06:15:07.672Z,24.08
2022-08-11T06:16:07.364Z,24.10
2022-08-11T06:17:07.932Z,24.16
2022-08-11T06:18:07.599Z,24.20
2022-08-11T06:19:07.636Z,24.26
2022-08-11T06:20:07.875Z,24.29
2022-08-11T06:21:07.619Z,24.34
2022-08-11T06:22:07.496Z,24.39
2022-08-11T06:23:07.495Z,24.43
2022-08-11T06:24:07.284Z,24.47
2022-08-11T06:25:07.861Z,24.5
2022-08-11T06:26:08.376Z,24.5
2022-08-11T06:27:13.463Z,24.52
2022-08-11T06:28:07.307Z,24.57
2022-08-11T06:29:07.911Z,24.61
2022-08-11T06:30:07.895Z,24.68
2022-08-11T06:31:07.821Z,24.73
2022-08-11T06:32:07.440Z,24.78
2022-08-11T06:33:07.581Z,24.85
2022-08-11T06:34:08.245Z,24.90
2022-08-11T06:35:07.464Z,24.93
2022-08-11T06:36:07.866Z,25.01
2022-08-11T06:37:07.555Z,25.05
2022-08-11T06:38:08.307Z,25.07
2022-08-11T06:39:08.063Z,25.06
2022-08-11T06:40:08.009Z,25.11
2022-08-11T06:41:07.473Z,25.14
2022-08-11T06:42:07.921Z,25.20
2022-08-11T06:43:07.299Z,25.24
2022-08-11T06:44:07.909Z,25.33
2022-08-11T06:45:07.800Z,25.34
2022-08-11T06:46:07.351Z,25.34
2022-08-11T06:47:07.958Z,25.35
2022-08-11T06:48:07.504Z,25.38
2022-08-11T06:49:07.788Z,25.42
2022-08-11T06:50:07.489Z,25.45
2022-08-11T06:51:08.029Z,25.50
2022-08-11T06:52:07.456Z,25.55
2022-08-11T06:53:07.837Z,25.62
2022-08-11T06:54:07.141Z,25.70
2022-08-11T06:55:10.304Z,25.75
2022-08-11T06:56:07.708Z,25.81
2022-08-11T06:57:28.837Z,25.90
2022-08-11T06:58:07.654Z,26.06
2022-08-11T06:59:07.321Z,26.13
2022-08-11T07:00:07.685Z,26.21
2022-08-11T07:01:07.800Z,26.29
2022-08-11T07:02:07.490Z,26.36
2022-08-11T07:03:07.251Z,26.42
2022-08-11T07:04:07.188Z,26.46
2022-08-11T07:05:07.981Z,26.48
2022-08-11T07:06:07.942Z,26.51
2022-08-11T07:07:07.417Z,26.53
2022-08-11T07:08:34.346Z,26.61
2022-08-11T07:09:08.094Z,26.69
2022-08-11T07:10:07.545Z,26.71
2022-08-11T07:11:06.962Z,26.73
2022-08-11T07:12:07.525Z,26.75
2022-08-11T07:13:07.415Z,26.76
2022-08-11T07:14:07.042Z,26.81
2022-08-11T07:15:08.073Z,26.82
2022-08-11T07:16:12.296Z,26.80
2022-08-11T07:17:07.469Z,26.84
2022-08-11T07:18:07.874Z,26.89
2022-08-11T07:19:07.221Z,26.96
2022-08-11T07:20:07.946Z,27.01
2022-08-11T07:22:00.620Z,27.03
2022-08-11T07:22:08.743Z,27.07
2022-08-11T07:23:07.624Z,27.11
2022-08-11T07:24:07.338Z,27.15
2022-08-11T07:25:07.729Z,27.24
2022-08-11T07:26:07.261Z,27.27
2022-08-11T07:27:07.655Z,27.25
2022-08-11T07:28:07.458Z,27.29
2022-08-11T07:29:07.446Z,27.41
2022-08-11T07:30:08.390Z,27.43
2022-08-11T07:31:07.761Z,27.48
2022-08-11T07:32:08.134Z,27.52
2022-08-11T07:33:07.958Z,27.54
2022-08-11T07:34:11.138Z,27.58
2022-08-11T07:35:07.665Z,27.65
2022-08-11T07:36:07.485Z,27.67
2022-08-11T07:37:07.533Z,27.70
2022-08-11T07:38:08.026Z,27.71
2022-08-11T07:39:07.765Z,27.79
2022-08-11T07:40:07.635Z,27.86
2022-08-11T07:41:07.492Z,27.86
2022-08-11T07:42:07.795Z,27.89
2022-08-11T07:43:07.415Z,27.89
2022-08-11T07:44:07.352Z,27.95
2022-08-11T07:45:08.160Z,27.96
2022-08-11T07:46:07.864Z,27.99
2022-08-11T07:47:07.678Z,28.00
2022-08-11T07:48:07.001Z,28.03
2022-08-11T07:49:07.398Z,28.04
2022-08-11T07:50:07.720Z,28.09
2022-08-11T07:51:07.112Z,28.10
2022-08-11T07:52:07.667Z,28.15
2022-08-11T07:53:07.320Z,28.20
2022-08-11T07:54:16.893Z,28.29
2022-08-11T07:55:08.510Z,28.35
2022-08-11T07:56:07.106Z,28.36
2022-08-11T07:57:09.615Z,28.39
2022-08-11T07:58:16.812Z,28.45
2022-08-11T07:59:08.245Z,28.5
2022-08-11T08:00:08.000Z,28.55
2022-08-11T08:01:10.262Z,28.63
2022-08-11T08:02:08.201Z,28.64
2022-08-11T08:03:07.587Z,28.63
2022-08-11T08:04:07.912Z,28.67
2022-08-11T08:05:07.619Z,28.69
2022-08-11T08:06:15.272Z,28.72
2022-08-11T08:07:07.554Z,28.74
2022-08-11T08:08:07.361Z,28.77
2022-08-11T08:09:07.804Z,28.80
2022-08-11T08:10:07.456Z,28.85
2022-08-11T08:11:07.336Z,28.89
2022-08-11T08:12:07.766Z,28.93
2022-08-11T08:13:07.182Z,28.95
2022-08-11T08:14:07.934Z,29.03
2022-08-11T08:15:07.457Z,29.07
2022-08-11T08:16:07.104Z,29.10
2022-08-11T08:17:07.844Z,29.14
2022-08-11T08:18:09.630Z,29.20
2022-08-11T08:19:07.661Z,29.23
2022-08-11T08:20:07.278Z,29.23
2022-08-11T08:21:07.819Z,29.30
2022-08-11T08:22:37.710Z,29.33
2022-08-11T08:23:07.825Z,29.36
2022-08-11T08:24:07.185Z,29.39
2022-08-11T08:25:08.146Z,29.43
2022-08-11T08:26:16.694Z,29.47
2022-08-11T08:27:07.559Z,29.5
2022-08-11T08:28:07.270Z,29.56
2022-08-11T08:29:07.943Z,29.59
2022-08-11T08:30:08.057Z,29.61
2022-08-11T08:31:07.805Z,29.67
2022-08-11T08:32:07.650Z,29.69
2022-08-11T08:33:07.660Z,29.69
2022-08-11T08:34:07.221Z,29.83
2022-08-11T08:35:07.748Z,29.82
2022-08-11T08:36:07.706Z,29.80
2022-08-11T08:37:16.236Z,29.79
2022-08-11T08:38:07.955Z,29.79
2022-08-11T08:39:07.581Z,29.79
2022-08-11T08:40:07.943Z,29.93
2022-08-11T08:41:07.566Z,30.01
2022-08-11T08:42:08.003Z,29.97
2022-08-11T08:43:07.814Z,29.90
2022-08-11T08:44:36.787Z,29.86
2022-08-11T08:45:08.208Z,29.86
2022-08-11T08:46:07.812Z,29.86
2022-08-11T08:47:07.321Z,29.92
2022-08-11T08:48:07.215Z,29.93
2022-08-11T08:49:07.522Z,29.86
2022-08-11T08:50:07.968Z,29.88
2022-08-11T08:51:08.106Z,29.92
2022-08-11T08:52:29.526Z,29.93
2022-08-11T08:53:07.815Z,29.96
2022-08-11T08:54:07.258Z,29.95
2022-08-11T08:55:08.401Z,30
2022-08-11T08:56:07.317Z,30.04
2022-08-11T08:57:07.942Z,30.10
2022-08-11T08:58:07.668Z,30.14
2022-08-11T08:59:07.594Z,30.19
2022-08-11T09:00:08.851Z,30.24
2022-08-11T09:01:07.859Z,30.25
2022-08-11T09:02:07.744Z,30.29
2022-08-11T09:03:36.154Z,30.34
2022-08-11T09:04:11.390Z,30.39
2022-08-11T09:05:07.381Z,30.45
2022-08-11T09:06:08.048Z,30.49
2022-08-11T09:07:07.915Z,30.52
2022-08-11T09:08:07.333Z,30.57
2022-08-11T09:09:08.365Z,30.62
2022-08-11T09:10:08.052Z,30.66
2022-08-11T09:11:13.271Z,30.67
2022-08-11T09:12:07.655Z,30.69
2022-08-11T09:13:07.486Z,30.72
2022-08-11T09:14:12.839Z,30.82
2022-08-11T09:15:08.200Z,30.93
2022-08-11T09:16:07.320Z,30.97
2022-08-11T09:17:07.292Z,30.97
2022-08-11T09:18:07.878Z,30.96
2022-08-11T09:19:07.555Z,31.02
2022-08-11T09:20:07.433Z,30.99
2022-08-11T09:21:07.625Z,30.96
2022-08-11T09:22:07.489Z,30.95
2022-08-11T09:24:06.382Z,30.96
2022-08-11T09:24:14.833Z,31.00
2022-08-11T09:25:08.062Z,31
2022-08-11T09:26:07.593Z,31
2022-08-11T09:27:07.113Z,31.01
2022-08-11T09:28:07.937Z,31.06
2022-08-11T09:29:07.923Z,31.13
2022-08-11T09:30:07.921Z,31.15
2022-08-11T09:31:08.119Z,31.17
2022-08-11T09:32:07.451Z,31.18
2022-08-11T09:33:07.964Z,31.23
2022-08-11T09:34:07.714Z,31.25
2022-08-11T09:35:07.520Z,31.35
2022-08-11T09:36:07.153Z,31.44
2022-08-11T09:37:07.803Z,31.42
2022-08-11T09:38:07.282Z,31.37
2022-08-11T09:39:08.150Z,31.37
2022-08-11T09:40:07.774Z,31.42
2022-08-11T09:41:07.750Z,31.45
2022-08-11T09:42:11.308Z,31.45
2022-08-11T09:43:07.665Z,31.45
2022-08-11T09:44:07.071Z,31.47
2022-08-11T09:45:07.975Z,31.48
2022-08-11T09:46:07.744Z,31.51
2022-08-11T09:47:07.868Z,31.54
2022-08-11T09:48:07.359Z,31.63
2022-08-11T09:49:07.109Z,31.65
2022-08-11T09:50:07.909Z,31.68
2022-08-11T09:51:07.952Z,31.69
2022-08-11T09:52:07.675Z,31.72
2022-08-11T09:53:36.434Z,31.75
2022-08-11T09:54:08.251Z,31.82
2022-08-11T09:55:08.050Z,31.89
2022-08-11T09:56:08.036Z,31.93
2022-08-11T09:57:08.231Z,31.95
2022-08-11T09:58:07.694Z,31.97
2022-08-11T09:59:07.396Z,31.96
2022-08-11T10:00:12.880Z,31.98
2022-08-11T10:01:07.247Z,32.01
2022-08-11T10:02:08.241Z,32.06
2022-08-11T10:03:07.994Z,32.06
2022-08-11T10:04:07.545Z,32.11
2022-08-11T10:05:07.324Z,32.13
2022-08-11T10:06:08.291Z,32.18
2022-08-11T10:07:08.014Z,32.22
2022-08-11T10:08:07.659Z,32.25
2022-08-11T10:09:07.643Z,32.27
2022-08-11T10:10:07.537Z,32.39
2022-08-11T10:11:07.532Z,32.43
2022-08-11T10:12:07.792Z,32.42
2022-08-11T10:13:44.087Z,32.41
2022-08-11T10:14:33.946Z,32.42
2022-08-11T10:15:08.130Z,32.44
2022-08-11T10:16:15.599Z,32.47
2022-08-11T10:17:07.631Z,32.50
2022-08-11T10:18:07.775Z,32.53
2022-08-11T10:19:07.940Z,32.59
2022-08-11T10:20:07.794Z,32.63
2022-08-11T10:21:07.682Z,32.67
2022-08-11T10:22:08.035Z,32.70
2022-08-11T10:23:07.563Z,32.70
2022-08-11T10:24:06.522Z,32.74
2022-08-11T10:26:07.516Z,32.82
2022-08-11T10:27:07.388Z,32.87
2022-08-11T10:28:16.984Z,32.95
2022-08-11T10:29:13.010Z,32.94
2022-08-11T10:30:08.289Z,32.99
2022-08-11T10:31:12.671Z,33.04
2022-08-11T10:32:07.784Z,33.06
2022-08-11T10:33:08.902Z,33.11
2022-08-11T10:34:07.294Z,33.22
2022-08-11T10:35:07.619Z,33.21
2022-08-11T10:36:16.423Z,33.14
2022-08-11T10:37:07.389Z,33.12
2022-08-11T10:38:09.954Z,33.13
2022-08-11T10:39:07.990Z,33.11
2022-08-11T10:40:08.368Z,33.09
2022-08-11T10:41:08.076Z,33.10
2022-08-11T10:42:12.183Z,33.11
2022-08-11T10:43:07.528Z,33.12
2022-08-11T10:44:07.395Z,33.13
2022-08-11T10:45:07.747Z,33.13
2022-08-11T10:46:07.646Z,33.14
2022-08-11T10:47:07.519Z,33.20
2022-08-11T10:48:07.089Z,33.24
2022-08-11T10:49:07.633Z,33.29
2022-08-11T10:50:07.658Z,33.33
2022-08-11T10:51:07.643Z,33.39
2022-08-11T10:52:08.443Z,33.45
2022-08-11T10:53:07.695Z,33.52
2022-08-11T10:54:07.762Z,33.60
2022-08-11T10:55:07.341Z,33.67
2022-08-11T10:56:08.041Z,33.70
2022-08-11T10:57:07.824Z,33.70
2022-08-11T10:58:07.759Z,33.74
2022-08-11T10:59:07.673Z,33.75
2022-08-11T11:00:08.277Z,33.76
2022-08-11T11:01:07.625Z,33.77
2022-08-11T11:02:07.585Z,33.77
2022-08-11T11:03:23.036Z,33.82
2022-08-11T11:04:07.491Z,33.87
2022-08-11T11:05:07.776Z,33.90
2022-08-11T11:06:28.665Z,33.91
2022-08-11T11:07:07.863Z,33.93
2022-08-11T11:08:07.799Z,33.91
2022-08-11T11:09:07.836Z,33.94
2022-08-11T11:10:07.582Z,33.97
2022-08-11T11:11:07.910Z,33.97
2022-08-11T11:12:07.484Z,34.01
2022-08-11T11:13:07.200Z,34.06
2022-08-11T11:14:07.548Z,34.02
2022-08-11T11:15:08.371Z,33.94
2022-08-11T11:16:07.959Z,33.90
2022-08-11T11:17:07.379Z,33.87
2022-08-11T11:18:07.228Z,33.89
2022-08-11T11:19:07.661Z,33.93
2022-08-11T11:20:07.444Z,33.95
2022-08-11T11:21:07.574Z,34.00
2022-08-11T11:22:07.916Z,34.04
2022-08-11T11:23:07.257Z,34.09
2022-08-11T11:24:08.099Z,34.12
2022-08-11T11:25:08.436Z,34.13
2022-08-11T11:26:07.308Z,34.18
2022-08-11T11:27:07.325Z,34.23
2022-08-11T11:28:07.733Z,34.31
2022-08-11T11:29:07.843Z,34.34
2022-08-11T11:30:07.787Z,34.24
2022-08-11T11:31:07.758Z,34.22
2022-08-11T11:32:08.133Z,34.23
2022-08-11T11:33:08.049Z,34.26
2022-08-11T11:34:12.384Z,34.27
2022-08-11T11:35:07.751Z,34.33
2022-08-11T11:36:07.703Z,34.36
2022-08-11T11:37:07.479Z,34.36
2022-08-11T11:38:09.389Z,34.32
2022-08-11T11:39:08.236Z,34.34
2022-08-11T11:40:07.288Z,34.38
2022-08-11T11:41:07.968Z,34.38
2022-08-11T11:42:07.687Z,34.40
2022-08-11T11:43:07.351Z,34.41
2022-08-11T11:44:07.824Z,34.43
2022-08-11T11:45:08.012Z,34.43
2022-08-11T11:46:07.351Z,34.45
2022-08-11T11:47:08.088Z,34.47
2022-08-11T11:48:07.916Z,34.52
2022-08-11T11:49:14.000Z,34.54
2022-08-11T11:50:07.775Z,34.59
2022-08-11T11:51:07.385Z,34.70
2022-08-11T11:52:07.745Z,34.75
2022-08-11T11:53:07.499Z,34.78
2022-08-11T11:54:07.887Z,34.82
2022-08-11T11:55:07.645Z,34.88
2022-08-11T11:56:07.458Z,34.93
2022-08-11T11:57:07.925Z,35
2022-08-11T11:58:07.659Z,35.04
2022-08-11T11:59:07.695Z,35.09
2022-08-11T12:00:08.579Z,35.11
2022-08-11T12:01:07.507Z,35.12
2022-08-11T12:02:11.870Z,35.11
2022-08-11T12:03:08.210Z,35.14
2022-08-11T12:04:07.744Z,35.18
2022-08-11T12:05:07.641Z,35.20
2022-08-11T12:06:07.730Z,35.36
2022-08-11T12:07:07.735Z,35.29
2022-08-11T12:08:12.890Z,35.20
2022-08-11T12:09:08.189Z,35.17
2022-08-11T12:10:08.083Z,35.20
2022-08-11T12:11:08.042Z,35.21
2022-08-11T12:12:07.560Z,35.24
2022-08-11T12:13:07.510Z,35.27
2022-08-11T12:14:10.351Z,35.34
2022-08-11T12:15:07.487Z,35.39
2022-08-11T12:16:32.947Z,35.42
2022-08-11T12:17:07.576Z,35.47
2022-08-11T12:18:07.443Z,35.50
2022-08-11T12:19:07.742Z,35.54
2022-08-11T12:20:31.916Z,35.61
2022-08-11T12:21:07.344Z,35.64
2022-08-11T12:22:07.755Z,35.70
2022-08-11T12:23:07.489Z,35.75
2022-08-11T12:24:08.225Z,35.80
2022-08-11T12:25:08.002Z,35.86
2022-08-11T12:26:26.363Z,35.94
2022-08-11T12:27:16.112Z,35.98
2022-08-11T12:28:07.896Z,36.06
2022-08-11T12:29:08.041Z,36.09
2022-08-11T12:30:08.152Z,36.12
2022-08-11T12:31:08.071Z,36.12
2022-08-11T12:32:08.187Z,36.16
2022-08-11T12:33:08.120Z,36.18
2022-08-11T12:34:07.727Z,36.21
2022-08-11T12:35:07.630Z,36.25
2022-08-11T12:36:07.823Z,36.31
2022-08-11T12:37:08.005Z,36.43
2022-08-11T12:38:09.459Z,36.49
2022-08-11T12:39:23.399Z,36.54
2022-08-11T12:40:15.743Z,36.56
2022-08-11T12:41:16.175Z,36.56
2022-08-11T12:42:07.510Z,36.59
2022-08-11T12:43:21.195Z,36.60
2022-08-11T12:44:07.223Z,36.67
2022-08-11T12:45:22.262Z,36.67
2022-08-11T12:46:07.514Z,36.67
2022-08-11T12:47:07.374Z,36.68
2022-08-11T12:48:57.496Z,36.67
2022-08-11T12:49:09.734Z,36.70
2022-08-11T12:50:07.863Z,36.70
2022-08-11T12:51:07.813Z,36.71
2022-08-11T12:52:14.430Z,36.75
2022-08-11T12:53:07.958Z,36.70
2022-08-11T12:54:08.138Z,36.70